Tropical Cyclones
[Index]
Main Index Home Page Stock Weather Photos Extreme Storms Discussion Storm News and Storm Chasing Reports Tropical Cyclones / Hurricanes / Typhoons Weather Data and Links Wild Fires / Bushfires Weather Observation Techniques Weather Picture Catalogue Tornado Pictures and Reports Stock Video Footage and DVDs for sale
Season 1991-1992 Tropical Cyclone HARRIET Track Map
Season 1991-1992 Summaries: [BoM-AU] [JTWC-AU] [JTWC-SIO] [JTWC-SPAC] [JTWC-SH]
<<- Previous TC | JTWC 1991-1992 Season | Next TC ->>

click for intensity scale information  Lat/long Grid: Show Hide

 Date Labels: Show Hide

Joint Typhoon Warning Centre Cyclone Data

Name: HARRIET

24 Feb 1992 18:00 UTC to 08 Mar 1992 12:00 UTC

    date/time    lat    long     hPa   cat  kts
1992-02-24 18   11.2   101.5                  25          
1992-02-25 00   11.2   100.9                  25          
1992-02-25 06   11.2   100.3                  25          
1992-02-25 12   11.3    99.6                  30          
1992-02-25 18   11.3    98.9                  30          
1992-02-26 00   11.4    98.2                  35          
1992-02-26 06   11.5    97.6            1     40          
1992-02-26 12   11.5    97.1            1     45          
1992-02-26 18   11.6    96.6            1     50          
1992-02-27 00   11.7    96.1            2     55          
1992-02-27 06   11.8    95.6            2     55          
1992-02-27 12   11.9    95.2            2     55          
1992-02-27 18   12.0    94.8            2     60          
1992-02-28 00   12.2    94.4            2     65          
1992-02-28 06   12.5    94.0            2     70          
1992-02-28 12   12.9    93.5            3     80          
1992-02-28 18   13.2    93.1            3     85          
1992-02-29 00   13.5    92.6            3     90          
1992-02-29 06   13.8    92.1            3     95          
1992-02-29 12   14.2    91.7            4    100          
1992-02-29 18   14.6    91.3            4    105          
1992-03-01 00   14.9    90.6            4    110          
1992-03-01 06   15.0    90.0            4    115          
1992-03-01 12   15.1    89.4            4    120          
1992-03-01 18   15.1    88.9            4    120          
1992-03-02 00   15.1    88.4            4    120          
1992-03-02 06   15.0    87.9            4    120          
1992-03-02 12   14.9    87.5            4    115          
1992-03-02 18   14.8    87.1            4    115          
1992-03-03 00   14.8    86.8            4    110          
1992-03-03 06   14.9    86.5            4    100          
1992-03-03 12   15.0    86.2            3     95          
1992-03-03 18   15.2    85.9            3     90          
1992-03-04 00   15.5    85.6            3     85          
1992-03-04 06   15.9    85.3            3     80          
1992-03-04 12   16.5    85.1            3     80          
1992-03-04 18   17.1    85.0            3     85          
1992-03-05 00   17.6    85.0            3     90          
1992-03-05 06   18.1    85.1            3     90          
1992-03-05 12   18.7    85.2            3     90          
1992-03-05 18   19.3    85.4            3     90          
1992-03-06 00   20.0    85.8            3     90          
1992-03-06 06   20.8    86.4            3     90          
1992-03-06 12   21.7    87.2            3     90          
1992-03-06 18   22.9    88.2            3     90          
1992-03-07 00   24.4    89.5            3     85          
1992-03-07 06   26.1    91.2            3     80          
1992-03-07 12   28.2    93.1            3     75          
1992-03-07 18   30.3    95.7            2     70          
1992-03-08 00   32.4    98.4            2     60          
1992-03-08 06   34.5   101.2            2     55          
1992-03-08 12   36.6   104.2            1     50          
Winds are 1-min average.

Tropical cyclone tracks developed by Michael Bath using data from the Joint Typhoon Warning Centre Best Tracks and Google Maps.


[Australian Severe Weather index] [Copyright Notice] [Email Contacts] [Search This Site] [Privacy Policy]
Document: tropical_cyclone_harriet.htm Updated: 18 September 2016